createdAt,value
2019-04-28T00:02:32.532Z,65.79
2019-04-28T00:05:11.346Z,66.15
2019-04-28T00:07:47.488Z,66.59
2019-04-28T00:10:22.561Z,66.84
2019-04-28T00:12:57.756Z,67.24
2019-04-28T00:15:33.172Z,67.53
2019-04-28T00:18:09.286Z,67.92
2019-04-28T00:20:46.022Z,68.28
2019-04-28T00:23:42.120Z,68.60
2019-04-28T00:26:37.406Z,68.93
2019-04-28T00:29:12.555Z,69.40
2019-04-28T00:31:47.731Z,69.57
2019-04-28T00:34:24.178Z,69.83
2019-04-28T00:37:03.310Z,70.25
2019-04-28T00:39:40.984Z,70.44
2019-04-28T00:42:17.581Z,70.72
2019-04-28T00:44:54.145Z,70.99
2019-04-28T00:47:30.993Z,71.44
2019-04-28T00:50:07.705Z,71.62
2019-04-28T00:52:43.390Z,72.32
2019-04-28T00:55:20.967Z,72.56
2019-04-28T00:57:58.658Z,73.07
2019-04-28T01:00:36.397Z,73.59
2019-04-28T01:03:11.741Z,73.91
2019-04-28T01:05:50.767Z,74.64
2019-04-28T01:08:26.356Z,74.53
2019-04-28T01:11:01.845Z,74.57
2019-04-28T01:13:37.252Z,74.64
2019-04-28T01:16:19.413Z,74.93
2019-04-28T01:19:13.077Z,74.97
2019-04-28T01:22:05.988Z,74.82
2019-04-28T01:24:42.657Z,74.83
2019-04-28T01:27:32.476Z,74.90
2019-04-28T01:30:11.229Z,74.89
2019-04-28T01:32:49.826Z,74.65
2019-04-28T01:35:25.291Z,74.60
2019-04-28T01:38:00.375Z,74.20
2019-04-28T01:40:35.473Z,74.32
2019-04-28T01:43:10.600Z,74.52
2019-04-28T01:45:46.173Z,74.47
2019-04-28T01:48:21.245Z,74.53
2019-04-28T01:50:56.729Z,74.80
2019-04-28T01:53:31.872Z,75.09
2019-04-28T01:56:07.240Z,75.02
2019-04-28T01:58:43.428Z,74.92
2019-04-28T02:01:20.417Z,74.86
2019-04-28T02:03:55.616Z,74.95
2019-04-28T02:06:30.706Z,74.76
2019-04-28T02:09:09.611Z,74.91
2019-04-28T02:11:45.476Z,75.19
2019-04-28T02:14:20.562Z,74.98
2019-04-28T02:16:56.123Z,75.35
2019-04-28T02:19:32.996Z,75.43
2019-04-28T02:22:10.508Z,75.36
2019-04-28T02:24:46.955Z,75.32
2019-04-28T02:27:22.370Z,75.25
2019-04-28T02:29:57.470Z,75.03
2019-04-28T02:32:33.817Z,74.84
2019-04-28T02:35:10.678Z,74.59
2019-04-28T02:37:45.965Z,74.25
2019-04-28T02:40:21.697Z,73.66
2019-04-28T02:43:01.163Z,73.87
2019-04-28T02:45:36.588Z,73.38
2019-04-28T02:48:13.296Z,73.31
2019-04-28T02:50:56.060Z,73.50
2019-04-28T02:53:33.635Z,73.89
2019-04-28T02:56:11.222Z,73.99
2019-04-28T02:58:50.829Z,73.86
2019-04-28T03:01:26.615Z,73.65
2019-04-28T03:04:02.494Z,74.21
2019-04-28T03:06:40.510Z,74.30
2019-04-28T03:09:14.692Z,73.88
2019-04-28T03:11:51.175Z,73.99
2019-04-28T03:14:27.418Z,73.70
2019-04-28T03:17:02.548Z,73.44
2019-04-28T03:19:41.587Z,73.19
2019-04-28T03:22:16.647Z,73.31
2019-04-28T03:24:53.627Z,72.99
2019-04-28T03:27:31.050Z,73.16
2019-04-28T03:30:26.098Z,73.08
2019-04-28T03:33:10.693Z,73.18
2019-04-28T03:35:43.922Z,73.16
2019-04-28T03:38:17.060Z,73.32
2019-04-28T03:40:54.096Z,73.61
2019-04-28T03:43:30.633Z,73.80
2019-04-28T03:46:20.785Z,73.71
2019-04-28T03:48:57.789Z,73.71
2019-04-28T03:51:32.992Z,73.97
2019-04-28T03:54:10.258Z,73.66
2019-04-28T03:56:45.904Z,73.85
2019-04-28T03:59:21.308Z,74.11
2019-04-28T04:02:02.314Z,73.94
2019-04-28T04:04:34.181Z,74.24
2019-04-28T04:07:11.130Z,74.49
2019-04-28T04:09:47.911Z,74.65
2019-04-28T04:12:27.348Z,75.26
2019-04-28T04:15:07.474Z,75.18
2019-04-28T04:18:03.796Z,74.88
2019-04-28T04:20:40.879Z,75.44
2019-04-28T04:23:16.454Z,75.50
2019-04-28T04:25:52.013Z,76.00
2019-04-28T04:28:30.282Z,76.72
2019-04-28T04:31:05.194Z,76.56
2019-04-28T04:33:41.226Z,76.64
2019-04-28T04:36:16.493Z,78.20
2019-04-28T04:38:51.895Z,78.57
2019-04-28T04:41:26.960Z,79.11
2019-04-28T04:44:02.585Z,79.83
2019-04-28T04:46:41.221Z,80.50
2019-04-28T04:49:15.715Z,81.37
2019-04-28T04:51:51.101Z,81.70
2019-04-28T04:54:30.255Z,82.27
2019-04-28T04:57:04.382Z,82.07
2019-04-28T04:59:40.249Z,82.82
2019-04-28T05:02:30.634Z,83.83
2019-04-28T05:05:05.397Z,84.39
2019-04-28T05:07:40.431Z,85.60
2019-04-28T05:10:15.505Z,85.49
2019-04-28T05:12:51.835Z,85.99
2019-04-28T05:15:27.248Z,86.54
2019-04-28T05:18:02.361Z,86.18
2019-04-28T05:20:37.418Z,87.09
2019-04-28T05:23:14.368Z,87.01
2019-04-28T05:25:49.814Z,87.05
2019-04-28T05:28:25.223Z,86.20
2019-04-28T05:31:00.546Z,86.85
2019-04-28T05:33:35.619Z,85.90
2019-04-28T05:36:12.150Z,86.24
2019-04-28T05:38:47.489Z,86.08
2019-04-28T05:41:23.416Z,85.71
2019-04-28T05:43:59.598Z,84.77
2019-04-28T05:46:34.839Z,84.93
2019-04-28T05:49:11.503Z,84.94
2019-04-28T05:51:50.473Z,85.37
2019-04-28T05:54:33.092Z,84.59
2019-04-28T05:57:10.698Z,84.44
2019-04-28T06:00:00.153Z,84.73
2019-04-28T06:02:55.913Z,85.00
2019-04-28T06:05:22.705Z,85.03
2019-04-28T06:08:10.009Z,85.01
2019-04-28T06:10:45.178Z,84.77
2019-04-28T06:13:20.314Z,83.90
2019-04-28T06:15:55.610Z,84.63
2019-04-28T06:18:30.860Z,84.80
2019-04-28T06:21:08.010Z,85.08
2019-04-28T06:23:43.332Z,84.50
2019-04-28T06:26:20.345Z,84.65
2019-04-28T06:28:55.631Z,84.06
2019-04-28T06:31:30.947Z,84.35
2019-04-28T06:34:05.985Z,83.64
2019-04-28T06:36:42.939Z,83.88
2019-04-28T06:39:18.258Z,83.48
2019-04-28T06:41:54.468Z,83.32
2019-04-28T06:44:29.795Z,82.22
2019-04-28T06:47:05.096Z,82.92
2019-04-28T06:49:40.287Z,83.14
2019-04-28T06:52:15.877Z,81.21
2019-04-28T06:54:51.273Z,82.54
2019-04-28T06:57:26.420Z,81.54
2019-04-28T07:00:01.766Z,81.46
2019-04-28T07:02:36.864Z,80.78
2019-04-28T07:05:12.395Z,81.22
2019-04-28T07:07:47.492Z,81.39
2019-04-28T07:10:22.810Z,81.36
2019-04-28T07:12:57.903Z,81.05
2019-04-28T07:15:33.301Z,80.72
2019-04-28T07:18:08.381Z,80.16
2019-04-28T07:20:55.070Z,80.24
2019-04-28T07:23:31.663Z,80.10
2019-04-28T07:26:11.004Z,78.62
2019-04-28T07:28:46.975Z,78.36
2019-04-28T07:31:23.998Z,78.76
2019-04-28T07:33:59.050Z,78.67
2019-04-28T07:36:34.113Z,77.38
2019-04-28T07:39:09.275Z,77.29
2019-04-28T07:41:44.449Z,77.31
2019-04-28T07:44:19.918Z,76.19
2019-04-28T07:46:55.890Z,76.71
2019-04-28T07:49:30.992Z,75.94
2019-04-28T07:52:08.909Z,75.15
2019-04-28T07:54:44.217Z,75.01
2019-04-28T07:57:20.142Z,74.16
2019-04-28T07:59:55.458Z,74.11
2019-04-28T08:02:31.076Z,74.92
2019-04-28T08:05:07.089Z,73.54
2019-04-28T08:07:42.199Z,73.83
2019-04-28T08:10:18.247Z,74.01
2019-04-28T08:12:54.389Z,72.99
2019-04-28T08:15:31.080Z,73.95
2019-04-28T08:18:06.421Z,74.01
2019-04-28T08:20:41.571Z,74.79
2019-04-28T08:23:17.616Z,73.85
2019-04-28T08:25:54.612Z,74.62
2019-04-28T08:28:31.563Z,74.40
2019-04-28T08:31:07.424Z,73.49
2019-04-28T08:34:02.252Z,71.56
2019-04-28T08:36:31.515Z,71.02
2019-04-28T08:39:07.684Z,70.75
2019-04-28T08:41:42.818Z,70.71
2019-04-28T08:44:17.982Z,71.25
2019-04-28T08:46:55.553Z,70.52
2019-04-28T08:49:33.081Z,70.65
2019-04-28T08:52:08.626Z,71.39
2019-04-28T08:54:44.196Z,71.77
2019-04-28T08:57:19.902Z,72.80
2019-04-28T08:59:56.167Z,73.33
2019-04-28T09:02:31.310Z,73.56
2019-04-28T09:05:06.890Z,73.03
2019-04-28T09:07:41.997Z,73.45
2019-04-28T09:10:17.467Z,73.61
2019-04-28T09:12:52.575Z,71.75
2019-04-28T09:15:27.662Z,70.98
2019-04-28T09:18:03.035Z,68.50
2019-04-28T09:20:39.272Z,67.28
2019-04-28T09:23:14.687Z,64.86
2019-04-28T09:25:49.777Z,64.16
2019-04-28T09:28:25.192Z,62.89
2019-04-28T09:31:00.587Z,62.58
2019-04-28T09:33:35.621Z,62.53
2019-04-28T09:36:10.792Z,62.94
2019-04-28T09:38:46.847Z,62.39
2019-04-28T09:41:23.536Z,63.38
2019-04-28T09:44:03.077Z,62.33
2019-04-28T09:46:40.106Z,61.23
2019-04-28T09:49:18.414Z,57.45
2019-04-28T09:51:54.378Z,56.05
2019-04-28T09:54:30.282Z,56.09
2019-04-28T09:57:10.569Z,57.09
2019-04-28T09:59:46.728Z,58.68
2019-04-28T10:02:24.574Z,59.16
2019-04-28T10:04:59.779Z,60.60
2019-04-28T10:07:34.825Z,60.94
2019-04-28T10:10:11.007Z,60.43
2019-04-28T10:12:48.112Z,61.74
2019-04-28T10:15:23.252Z,62.20
2019-04-28T10:17:58.469Z,62.67
2019-04-28T10:20:33.951Z,62.18
2019-04-28T10:23:09.479Z,62.59
2019-04-28T10:25:46.575Z,62.37
2019-04-28T10:28:21.797Z,62.15
2019-04-28T10:30:58.420Z,60.99
2019-04-28T10:33:33.733Z,60.84
2019-04-28T10:36:13.005Z,60.43
2019-04-28T10:38:50.010Z,60.67
2019-04-28T10:41:33.708Z,59.81
2019-04-28T10:44:08.837Z,58.92
2019-04-28T10:46:44.872Z,59.11
2019-04-28T10:49:20.840Z,56.66
2019-04-28T10:51:59.424Z,56.66
2019-04-28T10:54:34.931Z,55.77
2019-04-28T10:57:11.170Z,56.01
2019-04-28T10:59:46.343Z,55.48
2019-04-28T11:02:21.860Z,56.20
2019-04-28T11:05:08.065Z,55.10
2019-04-28T11:07:38.705Z,54.61
2019-04-28T11:10:17.218Z,55.64
2019-04-28T11:12:53.236Z,53.25
2019-04-28T11:15:36.897Z,49.05
2019-04-28T11:18:18.777Z,43.84
2019-04-28T11:20:53.979Z,41.34
2019-04-28T11:23:29.358Z,42.44
2019-04-28T11:26:04.578Z,42.44
2019-04-28T11:28:50.079Z,43.16
2019-04-28T11:31:26.625Z,45.17
2019-04-28T11:34:07.554Z,46.78
2019-04-28T11:36:44.625Z,49.30
2019-04-28T11:39:21.429Z,50.97
2019-04-28T11:41:57.065Z,52.71
2019-04-28T11:44:32.163Z,53.05
2019-04-28T11:47:11.739Z,52.76
2019-04-28T11:49:48.955Z,53.15
2019-04-28T11:52:27.206Z,52.46
2019-04-28T11:55:03.610Z,51.33
2019-04-28T11:57:41.236Z,51.71
2019-04-28T12:00:32.076Z,52.96
2019-04-28T12:03:07.195Z,52.04
2019-04-28T12:05:44.865Z,51.79
2019-04-28T12:08:20.942Z,52.83
2019-04-28T12:11:18.253Z,53.57
2019-04-28T12:14:15.934Z,55.09
2019-04-28T12:17:00.712Z,55.75
2019-04-28T12:19:38.419Z,55.43
2019-04-28T12:22:20.526Z,55.20
2019-04-28T12:24:56.340Z,54.72
2019-04-28T12:27:32.836Z,54.74
2019-04-28T12:30:08.670Z,54.34
2019-04-28T12:32:43.996Z,54.90
2019-04-28T12:35:19.541Z,53.33
2019-04-28T12:37:54.635Z,52.58
2019-04-28T12:40:32.475Z,52.21
2019-04-28T12:43:08.208Z,51.05
2019-04-28T12:45:43.579Z,49.46
2019-04-28T12:48:19.827Z,49.85
2019-04-28T12:50:58.862Z,49.26
2019-04-28T12:53:35.128Z,49.40
2019-04-28T12:56:10.584Z,49.12
2019-04-28T12:58:45.728Z,50.15
2019-04-28T13:01:35.656Z,51.09
2019-04-28T13:04:16.514Z,51.04
2019-04-28T13:07:03.661Z,51.13
2019-04-28T13:09:40.112Z,49.84
2019-04-28T13:12:16.470Z,48.87
2019-04-28T13:14:52.595Z,48.32
2019-04-28T13:17:29.117Z,48.75
2019-04-28T13:20:07.062Z,49.09
2019-04-28T13:22:42.728Z,50.70
2019-04-28T13:25:18.163Z,51.36
2019-04-28T13:27:53.758Z,51.43
2019-04-28T13:30:32.661Z,52.40
2019-04-28T13:33:11.542Z,52.78
2019-04-28T13:35:47.020Z,52.13
2019-04-28T13:38:27.425Z,52.59
2019-04-28T13:41:01.730Z,53.27
2019-04-28T13:43:38.882Z,51.26
2019-04-28T13:46:15.001Z,50.99
2019-04-28T13:48:51.608Z,51.44
2019-04-28T13:51:27.740Z,50.86
2019-04-28T13:54:04.583Z,51.44
2019-04-28T13:56:39.732Z,50.51
2019-04-28T13:59:17.924Z,50.60
2019-04-28T14:01:58.024Z,48.47
2019-04-28T14:04:44.194Z,44.70
2019-04-28T14:07:22.917Z,40.76
2019-04-28T14:09:58.208Z,39.47
2019-04-28T14:12:35.266Z,39.58
2019-04-28T14:15:14.336Z,40.96
2019-04-28T14:17:49.556Z,43.19
2019-04-28T14:20:25.639Z,43.78
2019-04-28T14:23:00.778Z,44.89
2019-04-28T14:25:36.992Z,46.28
2019-04-28T14:28:12.150Z,48.05
2019-04-28T14:30:47.406Z,48.51
2019-04-28T14:33:22.689Z,49.40
2019-04-28T14:35:59.991Z,49.96
2019-04-28T14:38:35.339Z,50.97
2019-04-28T14:41:10.958Z,50.75
2019-04-28T14:43:51.381Z,49.30
2019-04-28T14:46:30.233Z,45.33
2019-04-28T14:49:09.561Z,40.85
2019-04-28T14:51:46.344Z,37.82
2019-04-28T14:54:21.852Z,38.12
2019-04-28T14:56:59.428Z,40.63
2019-04-28T14:59:36.535Z,42.78
2019-04-28T15:02:13.661Z,44.41
2019-04-28T15:04:53.578Z,45.33
2019-04-28T15:07:48.422Z,45.44
2019-04-28T15:10:28.373Z,46.36
2019-04-28T15:13:06.800Z,45.45
2019-04-28T15:15:43.143Z,45.92
2019-04-28T15:18:19.327Z,46.43
2019-04-28T15:20:55.759Z,46.15
2019-04-28T15:23:32.545Z,45.19
2019-04-28T15:26:08.777Z,44.42
2019-04-28T15:28:44.974Z,43.69
2019-04-28T15:31:20.147Z,42.77
2019-04-28T15:33:59.113Z,40.54
2019-04-28T15:36:41.484Z,39.34
2019-04-28T15:39:18.730Z,39.35
2019-04-28T15:41:54.814Z,37.11
2019-04-28T15:44:29.944Z,36.29
2019-04-28T15:47:08.708Z,35.98
2019-04-28T15:49:47.635Z,35.76
2019-04-28T15:52:24.898Z,38.26
2019-04-28T15:55:00.610Z,40.11
2019-04-28T15:57:36.413Z,40.94
2019-04-28T16:00:13.656Z,41.17
2019-04-28T16:02:51.814Z,41.99
2019-04-28T16:05:29.041Z,41.97
2019-04-28T16:08:04.253Z,41.65
2019-04-28T16:10:39.833Z,39.50
2019-04-28T16:13:15.987Z,38.27
2019-04-28T16:15:55.139Z,38.12
2019-04-28T16:18:33.682Z,38.66
2019-04-28T16:21:13.021Z,38.86
2019-04-28T16:23:54.190Z,39.84
2019-04-28T16:26:29.439Z,38.80
2019-04-28T16:29:06.840Z,39.31
2019-04-28T16:31:43.019Z,39.95
2019-04-28T16:34:18.355Z,40.07
2019-04-28T16:36:54.041Z,40.91
2019-04-28T16:39:29.494Z,40.12
2019-04-28T16:42:04.979Z,38.93
2019-04-28T16:44:45.628Z,39.59
2019-04-28T16:47:21.436Z,40.64
2019-04-28T16:49:56.577Z,42.20
2019-04-28T16:52:32.051Z,41.72
2019-04-28T16:55:19.419Z,41.33
2019-04-28T16:58:15.907Z,41.58
2019-04-28T17:01:08.215Z,42.00
2019-04-28T17:03:44.552Z,41.56
2019-04-28T17:06:21.646Z,42.42
2019-04-28T17:08:58.147Z,42.21
2019-04-28T17:11:38.093Z,41.93
2019-04-28T17:14:13.686Z,43.21
2019-04-28T17:16:48.912Z,44.07
2019-04-28T17:19:43.253Z,45.38
2019-04-28T17:22:45.325Z,46.14
2019-04-28T17:24:56.660Z,46.37
2019-04-28T17:27:34.719Z,46.30
2019-04-28T17:30:16.175Z,46.63
2019-04-28T17:32:53.332Z,46.66
2019-04-28T17:35:28.964Z,47.00
2019-04-28T17:38:06.850Z,47.41
2019-04-28T17:40:41.807Z,48.18
2019-04-28T17:43:17.096Z,48.75
2019-04-28T17:45:52.587Z,49.94
2019-04-28T17:48:33.038Z,50.19
2019-04-28T17:51:09.192Z,51.39
2019-04-28T17:53:44.352Z,51.84
2019-04-28T17:56:19.566Z,52.33
2019-04-28T17:58:56.495Z,52.96
2019-04-28T18:02:36.297Z,53.78
2019-04-28T18:05:23.514Z,54.33
2019-04-28T18:08:00.470Z,54.87
2019-04-28T18:10:37.476Z,54.90
2019-04-28T18:13:12.706Z,55.50
2019-04-28T18:15:49.669Z,55.88
2019-04-28T18:18:29.255Z,56.42
2019-04-28T18:21:04.596Z,56.70
2019-04-28T18:23:40.120Z,57.11
2019-04-28T18:26:15.820Z,57.03
2019-04-28T18:28:50.947Z,57.54
2019-04-28T18:31:28.029Z,57.79
2019-04-28T18:34:08.493Z,58.21
2019-04-28T18:37:01.613Z,58.50
2019-04-28T18:39:55.682Z,58.50
2019-04-28T18:42:39.985Z,59.36
2019-04-28T18:45:17.986Z,59.97
2019-04-28T18:47:53.523Z,60.14
2019-04-28T18:50:28.766Z,60.33
2019-04-28T18:53:05.761Z,60.55
2019-04-28T18:55:41.989Z,60.46
2019-04-28T18:58:17.711Z,60.63
2019-04-28T19:00:57.984Z,60.95
2019-04-28T19:03:33.225Z,61.00
2019-04-28T19:06:09.132Z,61.31
2019-04-28T19:08:53.112Z,61.30
2019-04-28T19:11:30.993Z,61.70
2019-04-28T19:14:08.337Z,62.06
2019-04-28T19:16:50.331Z,62.75
2019-04-28T19:19:31.576Z,62.89
2019-04-28T19:22:08.628Z,62.75
2019-04-28T19:24:47.605Z,63.11
2019-04-28T19:27:23.542Z,63.29
2019-04-28T19:29:59.161Z,63.50
2019-04-28T19:32:34.888Z,63.43
2019-04-28T19:35:12.283Z,63.60
2019-04-28T19:37:48.566Z,63.95
2019-04-28T19:40:28.337Z,64.00
2019-04-28T19:43:03.922Z,64.42
2019-04-28T19:45:41.643Z,64.42
2019-04-28T19:48:18.587Z,64.57
2019-04-28T19:50:54.925Z,65.28
2019-04-28T19:53:31.973Z,64.90
2019-04-28T19:56:11.655Z,64.88
2019-04-28T19:59:02.582Z,65.15
2019-04-28T20:01:39.506Z,65.21
2019-04-28T20:04:15.905Z,65.38
2019-04-28T20:07:07.539Z,65.49
2019-04-28T20:09:43.338Z,65.62
2019-04-28T20:12:18.722Z,65.86
2019-04-28T20:14:54.100Z,65.67
2019-04-28T20:17:37.244Z,65.91
2019-04-28T20:20:14.147Z,65.98
2019-04-28T20:22:54.878Z,66.17
2019-04-28T20:25:31.485Z,66.11
2019-04-28T20:28:06.810Z,66.31
2019-04-28T20:30:42.009Z,66.20
2019-04-28T20:33:26.051Z,66.41
2019-04-28T20:36:07.096Z,66.28
2019-04-28T20:38:43.970Z,66.43
2019-04-28T20:41:22.050Z,66.26
2019-04-28T20:43:58.732Z,66.68
2019-04-28T20:46:34.305Z,66.54
2019-04-28T20:49:10.376Z,66.71
2019-04-28T20:51:45.528Z,66.81
2019-04-28T20:54:21.133Z,67.03
2019-04-28T20:56:56.685Z,66.86
2019-04-28T20:59:31.810Z,66.97
2019-04-28T21:02:06.901Z,68.68
2019-04-28T21:04:42.288Z,67.87
2019-04-28T21:07:17.375Z,67.79
2019-04-28T21:09:52.599Z,67.39
2019-04-28T21:12:27.678Z,65.58
2019-04-28T21:15:02.880Z,66.05
2019-04-28T21:17:40.173Z,66.23
2019-04-28T21:20:16.730Z,66.43
2019-04-28T21:22:52.274Z,66.37
2019-04-28T21:25:27.808Z,66.47
2019-04-28T21:28:10.875Z,66.49
2019-04-28T21:30:47.046Z,66.57
2019-04-28T21:33:23.498Z,66.51
2019-04-28T21:36:04.070Z,66.61
2019-04-28T21:38:39.680Z,66.62
2019-04-28T21:41:15.975Z,66.42
2019-04-28T21:43:59.053Z,66.54
2019-04-28T21:46:36.971Z,66.82
2019-04-28T21:49:14.039Z,66.91
2019-04-28T21:51:49.126Z,66.95
2019-04-28T21:54:24.300Z,66.96
2019-04-28T21:57:00.469Z,66.97
2019-04-28T21:59:35.563Z,67.11
2019-04-28T22:02:11.644Z,67.30
2019-04-28T22:04:47.318Z,67.27
2019-04-28T22:07:23.751Z,67.32
2019-04-28T22:10:00.104Z,67.62
2019-04-28T22:12:35.745Z,67.94
2019-04-28T22:15:11.848Z,67.90
2019-04-28T22:17:46.942Z,68.04
2019-04-28T22:20:22.900Z,68.11
2019-04-28T22:22:59.677Z,68.08
2019-04-28T22:25:36.025Z,68.22
2019-04-28T22:28:11.448Z,68.39
2019-04-28T22:30:47.485Z,68.80
2019-04-28T22:33:22.594Z,69.14
2019-04-28T22:35:57.684Z,69.51
2019-04-28T22:38:34.667Z,69.62
2019-04-28T22:41:09.925Z,69.52
2019-04-28T22:43:46.392Z,69.68
2019-04-28T22:46:21.854Z,69.37
2019-04-28T22:48:58.947Z,69.54
2019-04-28T22:51:34.434Z,69.43
2019-04-28T22:54:14.000Z,69.76
2019-04-28T22:56:51.181Z,69.98
2019-04-28T22:59:29.220Z,69.77
2019-04-28T23:02:06.443Z,69.55
2019-04-28T23:04:47.699Z,69.71
2019-04-28T23:07:24.107Z,69.65
2019-04-28T23:10:00.298Z,69.50
2019-04-28T23:12:36.989Z,69.11
2019-04-28T23:15:14.071Z,69.43
2019-04-28T23:17:49.217Z,69.65
2019-04-28T23:20:26.288Z,70.02
2019-04-28T23:23:03.008Z,69.72
2019-04-28T23:25:38.154Z,70.10
2019-04-28T23:28:13.606Z,70.26
2019-04-28T23:30:48.753Z,70.08
2019-04-28T23:33:25.296Z,70.09
2019-04-28T23:36:01.268Z,70.60
2019-04-28T23:38:36.751Z,70.80
2019-04-28T23:41:20.116Z,70.68
2019-04-28T23:43:55.590Z,70.93
2019-04-28T23:46:49.699Z,71.00
2019-04-28T23:49:26.425Z,71.24
2019-04-28T23:52:05.966Z,71.38
2019-04-28T23:54:45.813Z,71.46
2019-04-28T23:57:20.877Z,71.46
2019-04-28T23:59:57.874Z,71.04
